createdAt,value
2023-03-20T00:09:54.879Z,22.50
2023-03-20T00:24:56.341Z,22.40
2023-03-20T00:39:57.815Z,22.40
2023-03-20T00:54:59.272Z,22.40
2023-03-20T01:10:00.727Z,22.40
2023-03-20T01:25:02.186Z,22.30
2023-03-20T01:40:03.642Z,22.30
2023-03-20T01:55:05.109Z,22.30
2023-03-20T02:10:06.579Z,22.20
2023-03-20T02:25:08.058Z,22.20
2023-03-20T02:40:09.508Z,22.10
2023-03-20T02:55:10.977Z,22.10
2023-03-20T03:10:12.434Z,22.10
2023-03-20T03:25:13.894Z,22.10
2023-03-20T03:40:15.385Z,22.10
2023-03-20T03:55:16.836Z,22.10
2023-03-20T04:10:18.317Z,22.00
2023-03-20T04:25:19.778Z,22.00
2023-03-20T04:40:21.230Z,22.00
2023-03-20T04:55:22.682Z,22.00
2023-03-20T05:10:24.136Z,22.00
2023-03-20T05:25:25.601Z,22.00
2023-03-20T05:40:27.052Z,22.00
2023-03-20T05:55:28.526Z,21.90
2023-03-20T06:10:30.014Z,22.00
2023-03-20T06:25:31.481Z,21.90
2023-03-20T06:40:32.957Z,21.90
2023-03-20T06:55:34.642Z,21.90
2023-03-20T07:10:36.320Z,22.00
2023-03-20T07:25:42.926Z,22.10
2023-03-20T07:40:44.787Z,22.10
2023-03-20T07:55:46.248Z,22.10
2023-03-20T08:10:47.766Z,22.20
2023-03-20T08:25:49.266Z,22.20
2023-03-20T08:40:50.725Z,22.20
2023-03-20T08:55:52.178Z,22.20
2023-03-20T09:10:53.687Z,22.20
2023-03-20T09:25:55.172Z,22.30
2023-03-20T09:40:56.643Z,22.30
2023-03-20T09:55:58.288Z,22.40
2023-03-20T10:10:59.767Z,22.40
2023-03-20T10:26:01.276Z,22.50
2023-03-20T10:41:02.746Z,22.60
2023-03-20T10:56:04.242Z,22.80
2023-03-20T11:11:06.118Z,23.00
2023-03-20T11:26:07.598Z,23.00
2023-03-20T11:41:09.091Z,23.10
2023-03-20T11:56:10.634Z,23.20
2023-03-20T12:11:12.103Z,23.20
2023-03-20T12:26:13.574Z,23.10
2023-03-20T12:41:15.070Z,23.10
2023-03-20T12:56:16.575Z,23.10
2023-03-20T13:11:18.048Z,23.10
2023-03-20T13:26:19.511Z,23.00
2023-03-20T13:41:21.139Z,23.10
2023-03-20T13:56:22.612Z,23.10
2023-03-20T14:11:24.230Z,23.00
2023-03-20T14:26:25.699Z,22.90
2023-03-20T14:41:27.240Z,22.90
2023-03-20T14:56:28.707Z,22.90
2023-03-20T15:11:30.187Z,22.80
2023-03-20T15:26:31.660Z,22.70
2023-03-20T15:41:33.116Z,22.70
2023-03-20T15:56:34.591Z,22.60
2023-03-20T16:11:36.057Z,22.60
2023-03-20T16:26:37.543Z,22.50
2023-03-20T16:41:38.993Z,22.40
2023-03-20T16:56:40.576Z,22.40
2023-03-20T17:11:42.078Z,22.30
2023-03-20T17:26:43.549Z,22.30
2023-03-20T17:41:45.077Z,22.20
2023-03-20T17:56:46.534Z,22.10
2023-03-20T18:11:47.995Z,22.20
2023-03-20T18:26:49.454Z,22.10
2023-03-20T18:41:50.936Z,22.10
2023-03-20T18:56:52.385Z,22.10
2023-03-20T19:11:53.918Z,22.00
2023-03-20T19:26:55.431Z,22.00
2023-03-20T19:42:02.827Z,22.00
2023-03-20T19:57:11.140Z,22.00
2023-03-20T20:12:12.590Z,22.00
2023-03-20T20:27:17.820Z,22.00
2023-03-20T20:42:20.148Z,22.00
2023-03-20T20:57:21.611Z,22.00
2023-03-20T21:12:35.078Z,22.00
2023-03-20T21:27:39.825Z,22.00
2023-03-20T21:42:41.275Z,22.00
2023-03-20T22:59:08.505Z,21.90
2023-03-20T23:14:28.420Z,21.90
2023-03-20T23:29:31.388Z,21.90
2023-03-20T23:44:32.854Z,21.90
2023-03-20T23:59:34.345Z,21.90
